Time,TemperatureF,DewpointF,PressureIn,WindDirection,WindDirectionDegrees,WindSpeedMPH,WindSpeedGustMPH,Humidity,HourlyPrecipIn,Conditions,Clouds,dailyrainin,SolarRadiationWatts/m^2,SoftwareType,DateUTC
2013-07-02 00:11:00,44.0,43.0,-100.00,East,100,2.0,6.0,95,0.00,,,0.03,0.000000,,2013-07-02 06:11:00,
2013-07-02 00:23:00,44.0,43.0,-100.00,East,100,2.0,6.0,95,0.00,,,0.03,0.000000,,2013-07-02 06:23:00,
2013-07-02 00:34:00,44.0,43.0,-100.00,East,100,2.0,6.0,95,0.00,,,0.03,0.000000,,2013-07-02 06:34:00,
2013-07-02 00:43:00,44.0,43.0,-100.00,East,100,2.0,6.0,95,0.00,,,0.03,0.000000,,2013-07-02 06:43:00,
2013-07-02 00:53:00,44.0,43.0,-100.00,East,100,2.0,6.0,95,0.00,,,0.03,0.000000,,2013-07-02 06:53:00,
2013-07-02 01:11:00,42.0,40.0,-100.00,NE,48,3.0,8.0,93,0.00,,,0.03,0.000000,,2013-07-02 07:11:00,
2013-07-02 01:22:00,42.0,40.0,-100.00,NE,48,3.0,8.0,93,0.00,,,0.03,0.000000,,2013-07-02 07:22:00,
2013-07-02 01:34:00,42.0,40.0,-100.00,NE,48,3.0,8.0,93,0.00,,,0.03,0.000000,,2013-07-02 07:34:00,
2013-07-02 01:44:00,42.0,40.0,-100.00,NE,48,3.0,8.0,93,0.00,,,0.03,0.000000,,2013-07-02 07:44:00,
2013-07-02 01:52:00,42.0,40.0,-100.00,NE,48,3.0,8.0,93,0.00,,,0.03,0.000000,,2013-07-02 07:52:00,
2013-07-02 02:22:00,42.0,41.0,-100.00,SSW,208,2.0,6.0,96,0.01,,,0.04,0.000000,,2013-07-02 08:22:00,
2013-07-02 02:33:00,42.0,41.0,-100.00,SSW,208,2.0,6.0,96,0.01,,,0.04,0.000000,,2013-07-02 08:33:00,
2013-07-02 02:44:00,42.0,41.0,-100.00,SSW,208,2.0,6.0,96,0.01,,,0.04,0.000000,,2013-07-02 08:44:00,
2013-07-02 02:53:00,42.0,41.0,-100.00,SSW,208,2.0,6.0,96,0.01,,,0.04,0.000000,,2013-07-02 08:53:00,
2013-07-02 03:11:00,42.0,41.0,-100.00,South,172,1.0,4.0,96,0.00,,,0.04,0.000000,,2013-07-02 09:11:00,
2013-07-02 03:23:00,42.0,41.0,-100.00,South,172,1.0,4.0,96,0.00,,,0.04,0.000000,,2013-07-02 09:23:00,
2013-07-02 03:33:00,42.0,41.0,-100.00,South,172,1.0,4.0,96,0.00,,,0.04,0.000000,,2013-07-02 09:33:00,
2013-07-02 03:43:00,42.0,41.0,-100.00,South,172,1.0,4.0,96,0.00,,,0.04,0.000000,,2013-07-02 09:43:00,
2013-07-02 03:52:00,42.0,41.0,-100.00,South,172,1.0,4.0,96,0.00,,,0.04,0.000000,,2013-07-02 09:52:00,
2013-07-02 04:11:00,43.0,42.0,-100.00,SE,141,1.0,2.0,95,0.00,,,0.04,0.000000,,2013-07-02 10:11:00,
2013-07-02 04:22:00,43.0,42.0,-100.00,SE,141,1.0,2.0,95,0.00,,,0.04,0.000000,,2013-07-02 10:22:00,
2013-07-02 04:33:00,43.0,42.0,-100.00,SE,141,1.0,2.0,95,0.00,,,0.04,0.000000,,2013-07-02 10:33:00,
2013-07-02 04:43:00,43.0,42.0,-100.00,SE,141,1.0,2.0,95,0.00,,,0.04,0.000000,,2013-07-02 10:43:00,
2013-07-02 04:52:00,43.0,42.0,-100.00,SE,141,1.0,2.0,95,0.00,,,0.04,0.000000,,2013-07-02 10:52:00,
2013-07-02 05:22:00,43.0,41.0,-100.00,ESE,123,0.0,3.0,91,0.00,,,0.04,0.000000,,2013-07-02 11:22:00,
2013-07-02 05:33:00,43.0,41.0,-100.00,ESE,123,0.0,3.0,91,0.00,,,0.04,0.000000,,2013-07-02 11:33:00,
2013-07-02 05:42:00,43.0,41.0,-100.00,ESE,123,0.0,3.0,91,0.00,,,0.04,0.000000,,2013-07-02 11:42:00,
2013-07-02 05:52:00,43.0,41.0,-100.00,ESE,123,0.0,3.0,91,0.00,,,0.04,0.000000,,2013-07-02 11:52:00,
2013-07-02 06:11:00,40.0,39.0,-100.00,NNE,22,2.0,4.0,95,0.00,,,0.04,1.000000,,2013-07-02 12:11:00,
2013-07-02 06:23:00,40.0,39.0,-100.00,NNE,22,2.0,4.0,95,0.00,,,0.04,1.000000,,2013-07-02 12:23:00,
2013-07-02 06:33:00,40.0,39.0,-100.00,NNE,22,2.0,4.0,95,0.00,,,0.04,1.000000,,2013-07-02 12:33:00,
2013-07-02 06:43:00,40.0,39.0,-100.00,NNE,22,2.0,4.0,95,0.00,,,0.04,1.000000,,2013-07-02 12:43:00,
2013-07-02 06:52:00,40.0,39.0,-100.00,NNE,22,2.0,4.0,95,0.00,,,0.04,1.000000,,2013-07-02 12:52:00,
2013-07-02 07:11:00,40.0,38.0,-100.00,NNE,30,2.0,3.0,93,0.00,,,0.04,13.000000,,2013-07-02 13:11:00,
2013-07-02 07:22:00,40.0,38.0,-100.00,NNE,30,2.0,3.0,93,0.00,,,0.04,13.000000,,2013-07-02 13:22:00,
2013-07-02 07:34:00,40.0,38.0,-100.00,NNE,30,2.0,3.0,93,0.00,,,0.04,13.000000,,2013-07-02 13:34:00,
2013-07-02 07:43:00,40.0,38.0,-100.00,NNE,30,2.0,3.0,93,0.00,,,0.04,13.000000,,2013-07-02 13:43:00,
2013-07-02 07:52:00,40.0,38.0,-100.00,NNE,30,2.0,3.0,93,0.00,,,0.04,13.000000,,2013-07-02 13:52:00,
2013-07-02 08:11:00,50.0,41.0,-100.00,NNE,16,2.0,5.0,71,0.00,,,0.04,188.000000,,2013-07-02 14:11:00,
2013-07-02 08:22:00,50.0,41.0,-100.00,NNE,16,2.0,5.0,71,0.00,,,0.04,188.000000,,2013-07-02 14:22:00,
2013-07-02 08:33:00,50.0,41.0,-100.00,NNE,16,2.0,5.0,71,0.00,,,0.04,188.000000,,2013-07-02 14:33:00,
2013-07-02 08:43:00,50.0,41.0,-100.00,NNE,16,2.0,5.0,71,0.00,,,0.04,188.000000,,2013-07-02 14:43:00,
2013-07-02 08:53:00,50.0,41.0,-100.00,NNE,16,2.0,5.0,71,0.00,,,0.04,188.000000,,2013-07-02 14:53:00,
2013-07-02 09:33:00,58.0,41.0,-100.00,SW,224,3.0,6.0,54,0.00,,,0.04,453.000000,,2013-07-02 15:33:00,
2013-07-02 09:44:00,58.0,41.0,-100.00,SW,224,3.0,6.0,54,0.00,,,0.04,453.000000,,2013-07-02 15:44:00,
2013-07-02 09:53:00,58.0,41.0,-100.00,SW,224,3.0,6.0,54,0.00,,,0.04,453.000000,,2013-07-02 15:53:00,
2013-07-02 10:33:00,63.0,38.0,-100.00,NNE,33,4.0,10.0,40,0.00,,,0.04,657.000000,,2013-07-02 16:33:00,
2013-07-02 10:43:00,63.0,38.0,-100.00,NNE,33,4.0,10.0,40,0.00,,,0.04,657.000000,,2013-07-02 16:43:00,
2013-07-02 10:52:00,63.0,38.0,-100.00,NNE,33,4.0,10.0,40,0.00,,,0.04,657.000000,,2013-07-02 16:52:00,
2013-07-02 11:53:00,68.0,37.0,-100.00,ENE,65,5.0,11.0,32,0.00,,,0.04,845.000000,,2013-07-02 17:53:00,
2013-07-02 12:34:00,71.0,36.0,-100.00,NE,53,5.0,12.0,28,0.00,,,0.04,951.000000,,2013-07-02 18:34:00,
2013-07-02 12:43:00,71.0,36.0,-100.00,NE,53,5.0,12.0,28,0.00,,,0.04,951.000000,,2013-07-02 18:43:00,
2013-07-02 13:34:00,71.0,33.0,-100.00,NNE,19,4.0,16.0,25,-99.99,,,0.04,972.000000,,2013-07-02 19:34:00,
2013-07-02 13:43:00,71.0,33.0,-100.00,NNE,19,4.0,16.0,25,-99.99,,,0.04,972.000000,,2013-07-02 19:43:00,
2013-07-02 13:53:00,71.0,33.0,-100.00,NNE,19,4.0,16.0,25,-99.99,,,0.04,972.000000,,2013-07-02 19:53:00,
2013-07-02 14:33:00,72.0,34.0,-100.00,WNW,291,4.0,12.0,25,-99.99,,,0.04,694.000000,,2013-07-02 20:33:00,
2013-07-02 14:43:00,72.0,34.0,-100.00,WNW,291,4.0,12.0,25,-99.99,,,0.04,694.000000,,2013-07-02 20:43:00,
2013-07-02 14:52:00,72.0,34.0,-100.00,WNW,291,4.0,12.0,25,-99.99,,,0.04,694.000000,,2013-07-02 20:52:00,
2013-07-02 15:22:00,71.0,38.0,-100.00,ENE,64,5.0,13.0,30,0.00,,,0.04,977.000000,,2013-07-02 21:22:00,
2013-07-02 15:33:00,71.0,38.0,-100.00,ENE,64,5.0,13.0,30,0.00,,,0.04,977.000000,,2013-07-02 21:33:00,
2013-07-02 15:44:00,71.0,38.0,-100.00,ENE,64,5.0,13.0,30,0.00,,,0.04,977.000000,,2013-07-02 21:44:00,
2013-07-02 15:52:00,71.0,38.0,-100.00,ENE,64,5.0,13.0,30,0.00,,,0.04,977.000000,,2013-07-02 21:52:00,
2013-07-02 17:11:00,61.0,44.0,-100.00,ENE,78,4.0,10.0,54,0.01,,,0.06,333.000000,,2013-07-02 23:11:00,
2013-07-02 17:22:00,61.0,44.0,-100.00,ENE,78,4.0,10.0,54,0.01,,,0.06,333.000000,,2013-07-02 23:22:00,
2013-07-02 17:33:00,61.0,44.0,-100.00,ENE,78,4.0,10.0,54,0.01,,,0.06,333.000000,,2013-07-02 23:33:00,
2013-07-02 17:44:00,61.0,44.0,-100.00,ENE,78,4.0,10.0,54,0.01,,,0.06,333.000000,,2013-07-02 23:44:00,
2013-07-02 17:52:00,61.0,44.0,-100.00,ENE,78,4.0,10.0,54,0.01,,,0.06,333.000000,,2013-07-02 23:52:00,
2013-07-02 18:11:00,59.0,41.0,-100.00,NNE,28,4.0,15.0,51,0.00,,,0.06,373.000000,,2013-07-03 00:11:00,
2013-07-02 18:22:00,59.0,41.0,-100.00,NNE,28,4.0,15.0,51,0.00,,,0.06,373.000000,,2013-07-03 00:22:00,
2013-07-02 18:33:00,59.0,41.0,-100.00,NNE,28,4.0,15.0,51,0.00,,,0.06,373.000000,,2013-07-03 00:33:00,
2013-07-02 18:44:00,59.0,41.0,-100.00,NNE,28,4.0,15.0,51,0.00,,,0.06,373.000000,,2013-07-03 00:44:00,
2013-07-02 18:52:00,59.0,41.0,-100.00,NNE,28,4.0,15.0,51,0.00,,,0.06,373.000000,,2013-07-03 00:52:00,
2013-07-02 18:54:00,56.0,40.0,-100.00,ENE,64,7.0,18.0,55,0.00,,,0.06,232.000000,,2013-07-03 00:54:00,
2013-07-02 19:33:00,56.0,40.0,-100.00,ENE,64,7.0,18.0,55,0.00,,,0.06,232.000000,,2013-07-03 01:33:00,
2013-07-02 19:42:00,56.0,40.0,-100.00,ENE,64,7.0,18.0,55,0.00,,,0.06,232.000000,,2013-07-03 01:42:00,
2013-07-02 19:54:00,52.0,40.0,-100.00,NE,49,5.0,16.0,64,0.00,,,0.06,43.000000,,2013-07-03 01:54:00,
2013-07-02 20:26:00,52.0,40.0,-100.00,NE,49,5.0,16.0,64,0.00,,,0.06,43.000000,,2013-07-03 02:26:00,
2013-07-02 20:38:00,52.0,40.0,-100.00,NE,49,5.0,16.0,64,0.00,,,0.06,43.000000,,2013-07-03 02:38:00,
2013-07-02 20:44:00,52.0,40.0,-100.00,NE,49,5.0,16.0,64,0.00,,,0.06,43.000000,,2013-07-03 02:44:00,
2013-07-02 20:54:00,50.0,39.0,-100.00,SSE,164,2.0,9.0,67,0.00,,,0.05,5.000000,,2013-07-03 02:54:00,
2013-07-02 21:25:00,50.0,39.0,-100.00,SSE,164,2.0,9.0,67,0.00,,,0.05,5.000000,,2013-07-03 03:25:00,
2013-07-02 21:35:00,50.0,39.0,-100.00,SSE,164,2.0,9.0,67,0.00,,,0.05,5.000000,,2013-07-03 03:35:00,
2013-07-02 21:46:00,50.0,39.0,-100.00,SSE,164,2.0,9.0,67,0.00,,,0.05,5.000000,,2013-07-03 03:46:00,
2013-07-02 22:11:00,49.0,40.0,-100.00,NNW,339,2.0,6.0,70,0.00,,,0.05,0.000000,,2013-07-03 04:11:00,
2013-07-02 22:22:00,49.0,40.0,-100.00,NNW,339,2.0,6.0,70,0.00,,,0.05,0.000000,,2013-07-03 04:22:00,
2013-07-02 22:33:00,49.0,40.0,-100.00,NNW,339,2.0,6.0,70,0.00,,,0.05,0.000000,,2013-07-03 04:33:00,
2013-07-02 22:43:00,49.0,40.0,-100.00,NNW,339,2.0,6.0,70,0.00,,,0.05,0.000000,,2013-07-03 04:43:00,
2013-07-02 22:54:00,45.0,40.0,-100.00,NNE,16,1.0,3.0,81,0.00,,,0.05,0.000000,,2013-07-03 04:54:00,
2013-07-02 23:11:00,45.0,40.0,-100.00,NNE,16,1.0,3.0,81,0.00,,,0.05,0.000000,,2013-07-03 05:11:00,
2013-07-02 23:23:00,45.0,40.0,-100.00,NNE,16,1.0,3.0,81,0.00,,,0.05,0.000000,,2013-07-03 05:23:00,
2013-07-02 23:45:00,45.0,40.0,-100.00,NNE,16,1.0,3.0,81,0.00,,,0.05,0.000000,,2013-07-03 05:45:00,
2013-07-02 23:54:00,45.0,38.0,-100.00,SE,129,2.0,3.0,75,0.00,,,0.05,0.000000,,2013-07-03 05:54:00,